sensor_id;sensor_type;location;lat;lon;timestamp;P1;durP1;ratioP1;P2;durP2;ratioP2
19193;SDS011;9729;52.296;13.260;2022-12-18T00:01:51;80.40;;;25.57;;
19193;SDS011;9729;52.296;13.260;2022-12-18T00:04:18;88.63;;;29.10;;
19193;SDS011;9729;52.296;13.260;2022-12-18T00:06:46;75.77;;;24.43;;
19193;SDS011;9729;52.296;13.260;2022-12-18T00:09:13;82.70;;;25.13;;
19193;SDS011;9729;52.296;13.260;2022-12-18T00:11:39;86.50;;;23.90;;
19193;SDS011;9729;52.296;13.260;2022-12-18T00:14:08;87.00;;;25.43;;
19193;SDS011;9729;52.296;13.260;2022-12-18T00:16:36;82.33;;;25.77;;
19193;SDS011;9729;52.296;13.260;2022-12-18T00:19:02;84.73;;;26.43;;
19193;SDS011;9729;52.296;13.260;2022-12-18T00:21:30;80.97;;;22.30;;
19193;SDS011;9729;52.296;13.260;2022-12-18T00:23:58;84.03;;;25.23;;
19193;SDS011;9729;52.296;13.260;2022-12-18T00:26:25;85.90;;;26.73;;
19193;SDS011;9729;52.296;13.260;2022-12-18T00:28:53;144.23;;;46.80;;
19193;SDS011;9729;52.296;13.260;2022-12-18T00:31:23;127.57;;;39.70;;
19193;SDS011;9729;52.296;13.260;2022-12-18T00:33:50;93.93;;;31.90;;
19193;SDS011;9729;52.296;13.260;2022-12-18T00:36:17;93.17;;;28.40;;
19193;SDS011;9729;52.296;13.260;2022-12-18T00:38:45;83.50;;;23.27;;
19193;SDS011;9729;52.296;13.260;2022-12-18T00:41:13;84.43;;;24.60;;
19193;SDS011;9729;52.296;13.260;2022-12-18T00:44:01;86.23;;;24.60;;
19193;SDS011;9729;52.296;13.260;2022-12-18T00:46:29;77.97;;;22.97;;
19193;SDS011;9729;52.296;13.260;2022-12-18T00:48:55;74.10;;;23.37;;
19193;SDS011;9729;52.296;13.260;2022-12-18T00:51:21;84.00;;;25.67;;
19193;SDS011;9729;52.296;13.260;2022-12-18T00:53:48;82.87;;;23.93;;
19193;SDS011;9729;52.296;13.260;2022-12-18T00:56:14;77.30;;;24.57;;
19193;SDS011;9729;52.296;13.260;2022-12-18T00:58:40;81.00;;;25.27;;
19193;SDS011;9729;52.296;13.260;2022-12-18T01:01:07;87.10;;;26.83;;
19193;SDS011;9729;52.296;13.260;2022-12-18T01:03:35;76.90;;;22.03;;
19193;SDS011;9729;52.296;13.260;2022-12-18T01:06:04;80.67;;;24.67;;
19193;SDS011;9729;52.296;13.260;2022-12-18T01:08:32;88.03;;;26.13;;
19193;SDS011;9729;52.296;13.260;2022-12-18T01:10:58;82.50;;;24.37;;
19193;SDS011;9729;52.296;13.260;2022-12-18T01:13:24;69.30;;;23.00;;
19193;SDS011;9729;52.296;13.260;2022-12-18T01:15:51;71.33;;;22.97;;
19193;SDS011;9729;52.296;13.260;2022-12-18T01:18:17;78.03;;;25.90;;
19193;SDS011;9729;52.296;13.260;2022-12-18T01:20:45;80.60;;;25.20;;
19193;SDS011;9729;52.296;13.260;2022-12-18T01:23:11;84.13;;;23.13;;
19193;SDS011;9729;52.296;13.260;2022-12-18T01:25:38;70.77;;;23.93;;
19193;SDS011;9729;52.296;13.260;2022-12-18T01:28:04;85.67;;;28.00;;
19193;SDS011;9729;52.296;13.260;2022-12-18T01:30:31;74.80;;;24.37;;
19193;SDS011;9729;52.296;13.260;2022-12-18T01:32:57;76.90;;;24.73;;
19193;SDS011;9729;52.296;13.260;2022-12-18T01:35:23;96.37;;;27.33;;
19193;SDS011;9729;52.296;13.260;2022-12-18T01:37:54;82.70;;;26.47;;
19193;SDS011;9729;52.296;13.260;2022-12-18T01:40:21;84.97;;;25.97;;
19193;SDS011;9729;52.296;13.260;2022-12-18T01:42:49;82.30;;;25.90;;
19193;SDS011;9729;52.296;13.260;2022-12-18T01:45:22;78.67;;;23.10;;
19193;SDS011;9729;52.296;13.260;2022-12-18T01:47:50;94.20;;;27.33;;
19193;SDS011;9729;52.296;13.260;2022-12-18T01:50:19;87.43;;;27.67;;
19193;SDS011;9729;52.296;13.260;2022-12-18T01:52:48;87.90;;;27.60;;
19193;SDS011;9729;52.296;13.260;2022-12-18T01:55:19;78.70;;;25.73;;
19193;SDS011;9729;52.296;13.260;2022-12-18T01:57:46;82.37;;;26.40;;
19193;SDS011;9729;52.296;13.260;2022-12-18T02:00:14;97.63;;;30.50;;
19193;SDS011;9729;52.296;13.260;2022-12-18T02:02:44;90.23;;;26.63;;
19193;SDS011;9729;52.296;13.260;2022-12-18T02:05:11;96.20;;;27.20;;
19193;SDS011;9729;52.296;13.260;2022-12-18T02:07:42;95.87;;;26.40;;
19193;SDS011;9729;52.296;13.260;2022-12-18T02:10:13;93.43;;;26.57;;
19193;SDS011;9729;52.296;13.260;2022-12-18T02:12:45;93.03;;;29.63;;
19193;SDS011;9729;52.296;13.260;2022-12-18T02:15:15;102.73;;;29.27;;
19193;SDS011;9729;52.296;13.260;2022-12-18T02:17:47;105.03;;;32.93;;
19193;SDS011;9729;52.296;13.260;2022-12-18T02:20:20;95.77;;;28.33;;
19193;SDS011;9729;52.296;13.260;2022-12-18T02:22:53;106.10;;;31.17;;
19193;SDS011;9729;52.296;13.260;2022-12-18T02:25:34;110.37;;;29.03;;
19193;SDS011;9729;52.296;13.260;2022-12-18T02:28:18;102.10;;;29.90;;
19193;SDS011;9729;52.296;13.260;2022-12-18T02:30:46;88.80;;;27.50;;
19193;SDS011;9729;52.296;13.260;2022-12-18T02:33:14;89.77;;;29.17;;
19193;SDS011;9729;52.296;13.260;2022-12-18T02:35:43;91.93;;;27.93;;
19193;SDS011;9729;52.296;13.260;2022-12-18T02:38:10;90.60;;;26.43;;
19193;SDS011;9729;52.296;13.260;2022-12-18T02:40:38;81.90;;;26.63;;
19193;SDS011;9729;52.296;13.260;2022-12-18T02:43:08;88.87;;;26.40;;
19193;SDS011;9729;52.296;13.260;2022-12-18T02:45:34;83.43;;;25.10;;
19193;SDS011;9729;52.296;13.260;2022-12-18T02:48:01;82.60;;;27.33;;
19193;SDS011;9729;52.296;13.260;2022-12-18T02:50:29;75.50;;;25.30;;
19193;SDS011;9729;52.296;13.260;2022-12-18T02:53:01;81.17;;;26.70;;
19193;SDS011;9729;52.296;13.260;2022-12-18T02:55:37;77.43;;;23.33;;
19193;SDS011;9729;52.296;13.260;2022-12-18T02:58:12;78.07;;;23.77;;
19193;SDS011;9729;52.296;13.260;2022-12-18T03:00:42;73.50;;;24.83;;
19193;SDS011;9729;52.296;13.260;2022-12-18T03:03:11;64.63;;;22.17;;
19193;SDS011;9729;52.296;13.260;2022-12-18T03:05:41;82.57;;;22.30;;
19193;SDS011;9729;52.296;13.260;2022-12-18T03:08:10;81.40;;;24.83;;
19193;SDS011;9729;52.296;13.260;2022-12-18T03:10:41;77.03;;;24.97;;
19193;SDS011;9729;52.296;13.260;2022-12-18T03:13:13;74.70;;;23.67;;
19193;SDS011;9729;52.296;13.260;2022-12-18T03:15:43;75.10;;;26.17;;
19193;SDS011;9729;52.296;13.260;2022-12-18T03:18:12;75.80;;;24.67;;
19193;SDS011;9729;52.296;13.260;2022-12-18T03:20:40;73.87;;;23.77;;
19193;SDS011;9729;52.296;13.260;2022-12-18T03:23:09;78.73;;;24.90;;
19193;SDS011;9729;52.296;13.260;2022-12-18T03:25:37;73.63;;;22.97;;
19193;SDS011;9729;52.296;13.260;2022-12-18T03:28:05;71.07;;;23.20;;
19193;SDS011;9729;52.296;13.260;2022-12-18T03:30:37;78.17;;;25.83;;
19193;SDS011;9729;52.296;13.260;2022-12-18T03:33:05;70.17;;;24.00;;
19193;SDS011;9729;52.296;13.260;2022-12-18T03:35:35;70.30;;;24.90;;
19193;SDS011;9729;52.296;13.260;2022-12-18T03:38:04;78.10;;;25.90;;
19193;SDS011;9729;52.296;13.260;2022-12-18T03:43:55;94.90;;;30.07;;
19193;SDS011;9729;52.296;13.260;2022-12-18T03:46:26;87.43;;;26.33;;
19193;SDS011;9729;52.296;13.260;2022-12-18T03:48:57;79.60;;;23.13;;
19193;SDS011;9729;52.296;13.260;2022-12-18T03:51:26;70.47;;;23.97;;
19193;SDS011;9729;52.296;13.260;2022-12-18T03:53:55;69.57;;;25.93;;
19193;SDS011;9729;52.296;13.260;2022-12-18T03:56:24;78.07;;;25.03;;
19193;SDS011;9729;52.296;13.260;2022-12-18T03:58:52;77.37;;;24.47;;
19193;SDS011;9729;52.296;13.260;2022-12-18T04:01:21;72.00;;;23.37;;
19193;SDS011;9729;52.296;13.260;2022-12-18T04:03:51;82.03;;;24.50;;
19193;SDS011;9729;52.296;13.260;2022-12-18T04:06:19;74.00;;;24.80;;
19193;SDS011;9729;52.296;13.260;2022-12-18T04:08:46;73.27;;;25.73;;
19193;SDS011;9729;52.296;13.260;2022-12-18T04:11:13;87.03;;;27.37;;
19193;SDS011;9729;52.296;13.260;2022-12-18T04:13:39;71.50;;;22.57;;
19193;SDS011;9729;52.296;13.260;2022-12-18T04:16:08;65.67;;;21.40;;
19193;SDS011;9729;52.296;13.260;2022-12-18T04:18:35;65.57;;;22.63;;
19193;SDS011;9729;52.296;13.260;2022-12-18T04:21:03;57.97;;;22.97;;
19193;SDS011;9729;52.296;13.260;2022-12-18T04:23:31;65.33;;;22.47;;
19193;SDS011;9729;52.296;13.260;2022-12-18T04:25:57;62.30;;;21.00;;
19193;SDS011;9729;52.296;13.260;2022-12-18T04:28:24;56.20;;;19.13;;
19193;SDS011;9729;52.296;13.260;2022-12-18T04:30:50;63.70;;;21.87;;
19193;SDS011;9729;52.296;13.260;2022-12-18T04:33:17;62.03;;;21.60;;
19193;SDS011;9729;52.296;13.260;2022-12-18T04:35:43;56.60;;;20.17;;
19193;SDS011;9729;52.296;13.260;2022-12-18T04:38:12;71.97;;;23.30;;
19193;SDS011;9729;52.296;13.260;2022-12-18T04:40:41;53.53;;;18.83;;
19193;SDS011;9729;52.296;13.260;2022-12-18T04:43:07;51.67;;;20.00;;
19193;SDS011;9729;52.296;13.260;2022-12-18T04:45:34;65.37;;;21.63;;
19193;SDS011;9729;52.296;13.260;2022-12-18T04:48:01;52.47;;;18.30;;
19193;SDS011;9729;52.296;13.260;2022-12-18T04:50:29;57.83;;;20.00;;
19193;SDS011;9729;52.296;13.260;2022-12-18T04:52:56;62.80;;;21.30;;
19193;SDS011;9729;52.296;13.260;2022-12-18T04:55:24;66.67;;;20.90;;
19193;SDS011;9729;52.296;13.260;2022-12-18T04:57:50;65.40;;;20.67;;
19193;SDS011;9729;52.296;13.260;2022-12-18T05:00:19;59.30;;;21.53;;
19193;SDS011;9729;52.296;13.260;2022-12-18T05:02:45;66.27;;;22.30;;
19193;SDS011;9729;52.296;13.260;2022-12-18T05:05:12;65.70;;;22.20;;
19193;SDS011;9729;52.296;13.260;2022-12-18T05:07:38;58.37;;;20.83;;
19193;SDS011;9729;52.296;13.260;2022-12-18T05:10:05;56.73;;;21.73;;
19193;SDS011;9729;52.296;13.260;2022-12-18T05:12:33;55.67;;;18.83;;
19193;SDS011;9729;52.296;13.260;2022-12-18T05:15:20;57.47;;;20.13;;
19193;SDS011;9729;52.296;13.260;2022-12-18T05:17:46;66.73;;;21.30;;
19193;SDS011;9729;52.296;13.260;2022-12-18T05:20:12;69.33;;;22.93;;
19193;SDS011;9729;52.296;13.260;2022-12-18T05:22:39;66.60;;;22.83;;
19193;SDS011;9729;52.296;13.260;2022-12-18T05:25:05;67.33;;;22.17;;
19193;SDS011;9729;52.296;13.260;2022-12-18T05:27:33;64.93;;;21.83;;
19193;SDS011;9729;52.296;13.260;2022-12-18T05:29:59;69.30;;;23.90;;
19193;SDS011;9729;52.296;13.260;2022-12-18T05:32:26;78.67;;;23.93;;
19193;SDS011;9729;52.296;13.260;2022-12-18T05:34:52;68.33;;;22.77;;
19193;SDS011;9729;52.296;13.260;2022-12-18T05:37:19;61.93;;;22.73;;
19193;SDS011;9729;52.296;13.260;2022-12-18T05:39:46;64.20;;;20.97;;
19193;SDS011;9729;52.296;13.260;2022-12-18T05:42:12;71.00;;;23.93;;
19193;SDS011;9729;52.296;13.260;2022-12-18T05:44:40;56.03;;;19.87;;
19193;SDS011;9729;52.296;13.260;2022-12-18T05:47:06;75.23;;;24.17;;
19193;SDS011;9729;52.296;13.260;2022-12-18T05:49:33;71.43;;;23.47;;
19193;SDS011;9729;52.296;13.260;2022-12-18T05:51:59;71.13;;;22.50;;
19193;SDS011;9729;52.296;13.260;2022-12-18T05:54:26;77.80;;;23.43;;
19193;SDS011;9729;52.296;13.260;2022-12-18T05:56:52;73.33;;;23.70;;
19193;SDS011;9729;52.296;13.260;2022-12-18T05:59:19;73.80;;;23.40;;
19193;SDS011;9729;52.296;13.260;2022-12-18T06:01:46;73.50;;;24.73;;
19193;SDS011;9729;52.296;13.260;2022-12-18T06:04:13;76.27;;;25.03;;
19193;SDS011;9729;52.296;13.260;2022-12-18T06:06:39;78.97;;;25.77;;
19193;SDS011;9729;52.296;13.260;2022-12-18T06:09:06;81.10;;;25.70;;
19193;SDS011;9729;52.296;13.260;2022-12-18T06:11:35;82.50;;;27.27;;
19193;SDS011;9729;52.296;13.260;2022-12-18T06:14:02;71.37;;;23.07;;
19193;SDS011;9729;52.296;13.260;2022-12-18T06:16:30;74.50;;;22.83;;
19193;SDS011;9729;52.296;13.260;2022-12-18T06:18:58;80.20;;;27.00;;
19193;SDS011;9729;52.296;13.260;2022-12-18T06:21:25;88.27;;;26.97;;
19193;SDS011;9729;52.296;13.260;2022-12-18T06:23:51;82.73;;;27.60;;
19193;SDS011;9729;52.296;13.260;2022-12-18T06:26:18;81.77;;;25.97;;
19193;SDS011;9729;52.296;13.260;2022-12-18T06:28:44;80.57;;;26.30;;
19193;SDS011;9729;52.296;13.260;2022-12-18T06:31:11;81.23;;;30.33;;
19193;SDS011;9729;52.296;13.260;2022-12-18T06:33:38;84.27;;;25.17;;
19193;SDS011;9729;52.296;13.260;2022-12-18T06:36:07;80.13;;;27.47;;
19193;SDS011;9729;52.296;13.260;2022-12-18T06:38:36;84.40;;;27.53;;
19193;SDS011;9729;52.296;13.260;2022-12-18T06:41:05;81.23;;;27.17;;
19193;SDS011;9729;52.296;13.260;2022-12-18T06:43:32;70.03;;;25.20;;
19193;SDS011;9729;52.296;13.260;2022-12-18T06:45:59;75.00;;;27.47;;
19193;SDS011;9729;52.296;13.260;2022-12-18T06:48:25;72.20;;;29.27;;
19193;SDS011;9729;52.296;13.260;2022-12-18T06:50:51;71.63;;;25.03;;
19193;SDS011;9729;52.296;13.260;2022-12-18T06:53:19;81.00;;;25.87;;
19193;SDS011;9729;52.296;13.260;2022-12-18T06:55:46;78.17;;;25.97;;
19193;SDS011;9729;52.296;13.260;2022-12-18T06:58:14;69.30;;;23.93;;
19193;SDS011;9729;52.296;13.260;2022-12-18T07:00:41;76.20;;;25.63;;
19193;SDS011;9729;52.296;13.260;2022-12-18T07:03:07;69.53;;;25.40;;
19193;SDS011;9729;52.296;13.260;2022-12-18T07:05:34;62.53;;;23.23;;
19193;SDS011;9729;52.296;13.260;2022-12-18T07:08:00;70.23;;;24.97;;
19193;SDS011;9729;52.296;13.260;2022-12-18T07:10:28;59.37;;;23.47;;
19193;SDS011;9729;52.296;13.260;2022-12-18T07:12:54;70.00;;;23.47;;
19193;SDS011;9729;52.296;13.260;2022-12-18T07:15:21;57.47;;;22.03;;
19193;SDS011;9729;52.296;13.260;2022-12-18T07:17:47;58.03;;;22.87;;
19193;SDS011;9729;52.296;13.260;2022-12-18T07:20:13;62.83;;;22.10;;
19193;SDS011;9729;52.296;13.260;2022-12-18T07:22:40;61.27;;;22.60;;
19193;SDS011;9729;52.296;13.260;2022-12-18T07:25:07;51.83;;;21.73;;
19193;SDS011;9729;52.296;13.260;2022-12-18T07:27:34;63.43;;;22.30;;
19193;SDS011;9729;52.296;13.260;2022-12-18T07:30:02;61.97;;;22.90;;
19193;SDS011;9729;52.296;13.260;2022-12-18T07:32:29;70.47;;;23.30;;
19193;SDS011;9729;52.296;13.260;2022-12-18T07:34:56;76.17;;;23.80;;
19193;SDS011;9729;52.296;13.260;2022-12-18T07:37:22;68.93;;;24.63;;
19193;SDS011;9729;52.296;13.260;2022-12-18T07:39:49;62.17;;;23.57;;
19193;SDS011;9729;52.296;13.260;2022-12-18T07:42:15;65.03;;;24.03;;
19193;SDS011;9729;52.296;13.260;2022-12-18T07:44:58;73.97;;;25.97;;
19193;SDS011;9729;52.296;13.260;2022-12-18T07:47:24;66.87;;;21.93;;
19193;SDS011;9729;52.296;13.260;2022-12-18T07:49:51;71.50;;;24.50;;
19193;SDS011;9729;52.296;13.260;2022-12-18T07:52:17;68.83;;;25.27;;
19193;SDS011;9729;52.296;13.260;2022-12-18T07:54:44;85.07;;;27.73;;
19193;SDS011;9729;52.296;13.260;2022-12-18T07:57:16;84.93;;;28.10;;
19193;SDS011;9729;52.296;13.260;2022-12-18T07:59:43;93.77;;;29.30;;
19193;SDS011;9729;52.296;13.260;2022-12-18T08:02:11;91.93;;;30.30;;
19193;SDS011;9729;52.296;13.260;2022-12-18T08:04:37;95.87;;;28.97;;
19193;SDS011;9729;52.296;13.260;2022-12-18T08:07:04;107.73;;;34.20;;
19193;SDS011;9729;52.296;13.260;2022-12-18T08:09:30;98.40;;;34.13;;
19193;SDS011;9729;52.296;13.260;2022-12-18T08:11:57;100.53;;;30.20;;
19193;SDS011;9729;52.296;13.260;2022-12-18T08:14:23;81.83;;;27.60;;
19193;SDS011;9729;52.296;13.260;2022-12-18T08:16:50;134.50;;;38.00;;
19193;SDS011;9729;52.296;13.260;2022-12-18T08:19:18;115.17;;;38.10;;
19193;SDS011;9729;52.296;13.260;2022-12-18T08:21:44;118.60;;;35.60;;
19193;SDS011;9729;52.296;13.260;2022-12-18T08:24:11;113.33;;;34.03;;
19193;SDS011;9729;52.296;13.260;2022-12-18T08:26:37;108.13;;;33.90;;
19193;SDS011;9729;52.296;13.260;2022-12-18T08:29:03;98.63;;;30.93;;
19193;SDS011;9729;52.296;13.260;2022-12-18T08:31:30;100.77;;;33.37;;
19193;SDS011;9729;52.296;13.260;2022-12-18T08:33:57;95.83;;;30.00;;
19193;SDS011;9729;52.296;13.260;2022-12-18T08:36:25;101.23;;;29.87;;
19193;SDS011;9729;52.296;13.260;2022-12-18T08:38:51;88.07;;;29.90;;
19193;SDS011;9729;52.296;13.260;2022-12-18T08:41:19;93.87;;;31.70;;
19193;SDS011;9729;52.296;13.260;2022-12-18T08:43:45;93.60;;;29.47;;
19193;SDS011;9729;52.296;13.260;2022-12-18T08:46:32;87.00;;;26.43;;
19193;SDS011;9729;52.296;13.260;2022-12-18T08:49:03;84.23;;;27.63;;
19193;SDS011;9729;52.296;13.260;2022-12-18T08:51:31;79.53;;;26.27;;
19193;SDS011;9729;52.296;13.260;2022-12-18T08:53:57;77.47;;;27.03;;
19193;SDS011;9729;52.296;13.260;2022-12-18T08:56:23;90.97;;;30.80;;
19193;SDS011;9729;52.296;13.260;2022-12-18T08:58:51;73.77;;;25.83;;
19193;SDS011;9729;52.296;13.260;2022-12-18T09:01:20;73.03;;;23.83;;
19193;SDS011;9729;52.296;13.260;2022-12-18T09:03:47;69.37;;;23.03;;
19193;SDS011;9729;52.296;13.260;2022-12-18T09:06:13;62.93;;;23.00;;
19193;SDS011;9729;52.296;13.260;2022-12-18T09:08:42;71.53;;;26.77;;
19193;SDS011;9729;52.296;13.260;2022-12-18T09:11:11;79.03;;;26.40;;
19193;SDS011;9729;52.296;13.260;2022-12-18T09:13:39;69.13;;;25.07;;
19193;SDS011;9729;52.296;13.260;2022-12-18T09:16:05;73.90;;;24.80;;
19193;SDS011;9729;52.296;13.260;2022-12-18T09:18:32;58.27;;;22.33;;
19193;SDS011;9729;52.296;13.260;2022-12-18T09:20:58;79.70;;;27.63;;
19193;SDS011;9729;52.296;13.260;2022-12-18T09:23:25;80.30;;;27.50;;
19193;SDS011;9729;52.296;13.260;2022-12-18T09:25:57;75.47;;;25.60;;
19193;SDS011;9729;52.296;13.260;2022-12-18T09:28:24;70.17;;;26.43;;
19193;SDS011;9729;52.296;13.260;2022-12-18T09:30:50;88.03;;;27.37;;
19193;SDS011;9729;52.296;13.260;2022-12-18T09:33:17;81.47;;;28.30;;
19193;SDS011;9729;52.296;13.260;2022-12-18T09:35:44;86.10;;;28.03;;
19193;SDS011;9729;52.296;13.260;2022-12-18T09:38:11;81.70;;;27.20;;
19193;SDS011;9729;52.296;13.260;2022-12-18T09:40:40;76.07;;;25.80;;
19193;SDS011;9729;52.296;13.260;2022-12-18T09:43:12;79.87;;;26.73;;
19193;SDS011;9729;52.296;13.260;2022-12-18T09:45:40;80.03;;;27.43;;
19193;SDS011;9729;52.296;13.260;2022-12-18T09:48:09;71.93;;;25.83;;
19193;SDS011;9729;52.296;13.260;2022-12-18T09:50:37;81.20;;;27.77;;
19193;SDS011;9729;52.296;13.260;2022-12-18T09:53:05;84.93;;;29.90;;
19193;SDS011;9729;52.296;13.260;2022-12-18T09:55:34;76.03;;;24.90;;
19193;SDS011;9729;52.296;13.260;2022-12-18T09:58:04;84.93;;;28.17;;
19193;SDS011;9729;52.296;13.260;2022-12-18T10:00:37;99.40;;;32.77;;
19193;SDS011;9729;52.296;13.260;2022-12-18T10:03:08;87.93;;;30.37;;
19193;SDS011;9729;52.296;13.260;2022-12-18T10:05:37;76.07;;;28.40;;
19193;SDS011;9729;52.296;13.260;2022-12-18T10:08:08;84.37;;;28.03;;
19193;SDS011;9729;52.296;13.260;2022-12-18T10:10:38;74.27;;;26.77;;
19193;SDS011;9729;52.296;13.260;2022-12-18T10:13:09;84.43;;;28.33;;
19193;SDS011;9729;52.296;13.260;2022-12-18T10:15:45;97.80;;;29.63;;
19193;SDS011;9729;52.296;13.260;2022-12-18T10:18:32;93.63;;;31.23;;
19193;SDS011;9729;52.296;13.260;2022-12-18T10:21:19;77.23;;;27.07;;
19193;SDS011;9729;52.296;13.260;2022-12-18T10:23:49;84.53;;;29.50;;
19193;SDS011;9729;52.296;13.260;2022-12-18T10:26:21;79.80;;;28.27;;
19193;SDS011;9729;52.296;13.260;2022-12-18T10:28:48;89.27;;;28.97;;
19193;SDS011;9729;52.296;13.260;2022-12-18T10:31:17;78.73;;;28.27;;
19193;SDS011;9729;52.296;13.260;2022-12-18T10:33:44;92.10;;;29.43;;
19193;SDS011;9729;52.296;13.260;2022-12-18T10:36:11;87.63;;;30.07;;
19193;SDS011;9729;52.296;13.260;2022-12-18T10:38:38;93.43;;;29.83;;
19193;SDS011;9729;52.296;13.260;2022-12-18T10:41:05;86.00;;;29.60;;
19193;SDS011;9729;52.296;13.260;2022-12-18T10:43:34;79.60;;;30.40;;
19193;SDS011;9729;52.296;13.260;2022-12-18T10:46:11;73.97;;;27.17;;
19193;SDS011;9729;52.296;13.260;2022-12-18T10:48:47;68.07;;;23.20;;
19193;SDS011;9729;52.296;13.260;2022-12-18T10:51:19;56.40;;;22.10;;
19193;SDS011;9729;52.296;13.260;2022-12-18T10:53:51;59.17;;;25.53;;
19193;SDS011;9729;52.296;13.260;2022-12-18T10:56:20;58.97;;;23.90;;
19193;SDS011;9729;52.296;13.260;2022-12-18T10:58:55;71.10;;;25.27;;
19193;SDS011;9729;52.296;13.260;2022-12-18T11:01:22;63.67;;;23.13;;
19193;SDS011;9729;52.296;13.260;2022-12-18T11:03:59;66.57;;;24.73;;
19193;SDS011;9729;52.296;13.260;2022-12-18T11:06:27;71.13;;;23.60;;
19193;SDS011;9729;52.296;13.260;2022-12-18T11:08:58;66.87;;;23.13;;
19193;SDS011;9729;52.296;13.260;2022-12-18T11:11:25;65.77;;;23.60;;
19193;SDS011;9729;52.296;13.260;2022-12-18T11:13:56;74.30;;;27.07;;
19193;SDS011;9729;52.296;13.260;2022-12-18T11:16:25;78.20;;;26.10;;
19193;SDS011;9729;52.296;13.260;2022-12-18T11:18:52;70.57;;;24.87;;
19193;SDS011;9729;52.296;13.260;2022-12-18T11:21:20;69.57;;;28.03;;
19193;SDS011;9729;52.296;13.260;2022-12-18T11:23:47;75.03;;;28.33;;
19193;SDS011;9729;52.296;13.260;2022-12-18T11:26:16;75.57;;;26.07;;
19193;SDS011;9729;52.296;13.260;2022-12-18T11:28:43;74.37;;;26.00;;
19193;SDS011;9729;52.296;13.260;2022-12-18T11:31:18;68.90;;;26.23;;
19193;SDS011;9729;52.296;13.260;2022-12-18T11:33:47;71.47;;;27.73;;
19193;SDS011;9729;52.296;13.260;2022-12-18T11:36:18;70.80;;;25.97;;
19193;SDS011;9729;52.296;13.260;2022-12-18T11:38:46;73.97;;;28.03;;
19193;SDS011;9729;52.296;13.260;2022-12-18T11:41:15;69.50;;;24.50;;
19193;SDS011;9729;52.296;13.260;2022-12-18T11:44:10;63.83;;;25.40;;
19193;SDS011;9729;52.296;13.260;2022-12-18T11:46:39;65.37;;;23.83;;
19193;SDS011;9729;52.296;13.260;2022-12-18T11:49:12;64.30;;;24.97;;
19193;SDS011;9729;52.296;13.260;2022-12-18T11:51:41;58.23;;;22.53;;
19193;SDS011;9729;52.296;13.260;2022-12-18T11:54:13;56.20;;;23.43;;
19193;SDS011;9729;52.296;13.260;2022-12-18T11:56:42;61.67;;;21.23;;
19193;SDS011;9729;52.296;13.260;2022-12-18T11:59:14;61.43;;;24.83;;
19193;SDS011;9729;52.296;13.260;2022-12-18T12:01:48;61.77;;;24.17;;
19193;SDS011;9729;52.296;13.260;2022-12-18T12:04:22;58.37;;;23.77;;
19193;SDS011;9729;52.296;13.260;2022-12-18T12:07:00;51.03;;;21.03;;
19193;SDS011;9729;52.296;13.260;2022-12-18T12:09:34;58.10;;;21.77;;
19193;SDS011;9729;52.296;13.260;2022-12-18T12:12:10;55.80;;;23.97;;
19193;SDS011;9729;52.296;13.260;2022-12-18T12:14:46;63.60;;;23.43;;
19193;SDS011;9729;52.296;13.260;2022-12-18T12:17:19;57.83;;;22.83;;
19193;SDS011;9729;52.296;13.260;2022-12-18T12:19:52;59.27;;;23.70;;
19193;SDS011;9729;52.296;13.260;2022-12-18T12:22:24;60.97;;;23.00;;
19193;SDS011;9729;52.296;13.260;2022-12-18T12:25:02;56.47;;;22.77;;
19193;SDS011;9729;52.296;13.260;2022-12-18T12:27:43;62.37;;;22.30;;
19193;SDS011;9729;52.296;13.260;2022-12-18T12:30:15;57.97;;;24.50;;
19193;SDS011;9729;52.296;13.260;2022-12-18T12:32:47;56.83;;;22.27;;
19193;SDS011;9729;52.296;13.260;2022-12-18T12:35:23;59.20;;;21.53;;
19193;SDS011;9729;52.296;13.260;2022-12-18T12:37:58;57.43;;;22.97;;
19193;SDS011;9729;52.296;13.260;2022-12-18T12:40:33;62.60;;;24.00;;
19193;SDS011;9729;52.296;13.260;2022-12-18T12:43:02;51.87;;;22.43;;
19193;SDS011;9729;52.296;13.260;2022-12-18T12:45:41;50.30;;;22.47;;
19193;SDS011;9729;52.296;13.260;2022-12-18T12:48:14;59.57;;;23.43;;
19193;SDS011;9729;52.296;13.260;2022-12-18T12:50:44;52.87;;;22.93;;
19193;SDS011;9729;52.296;13.260;2022-12-18T12:53:14;58.30;;;24.67;;
19193;SDS011;9729;52.296;13.260;2022-12-18T12:55:48;58.27;;;25.67;;
19193;SDS011;9729;52.296;13.260;2022-12-18T12:58:16;56.77;;;23.97;;
19193;SDS011;9729;52.296;13.260;2022-12-18T13:00:50;57.97;;;19.93;;
19193;SDS011;9729;52.296;13.260;2022-12-18T13:03:24;57.37;;;24.60;;
19193;SDS011;9729;52.296;13.260;2022-12-18T13:05:59;61.37;;;22.47;;
19193;SDS011;9729;52.296;13.260;2022-12-18T13:08:27;55.43;;;22.20;;
19193;SDS011;9729;52.296;13.260;2022-12-18T13:10:56;57.13;;;22.27;;
19193;SDS011;9729;52.296;13.260;2022-12-18T13:13:49;56.80;;;22.43;;
19193;SDS011;9729;52.296;13.260;2022-12-18T13:16:17;53.77;;;23.07;;
19193;SDS011;9729;52.296;13.260;2022-12-18T13:18:48;54.60;;;22.90;;
19193;SDS011;9729;52.296;13.260;2022-12-18T13:21:17;47.93;;;21.10;;
19193;SDS011;9729;52.296;13.260;2022-12-18T13:23:47;53.33;;;21.73;;
19193;SDS011;9729;52.296;13.260;2022-12-18T13:29:02;51.43;;;22.20;;
19193;SDS011;9729;52.296;13.260;2022-12-18T13:34:26;47.30;;;20.77;;
19193;SDS011;9729;52.296;13.260;2022-12-18T13:36:54;54.53;;;19.67;;
19193;SDS011;9729;52.296;13.260;2022-12-18T13:39:26;50.67;;;21.03;;
19193;SDS011;9729;52.296;13.260;2022-12-18T13:45:36;43.60;;;19.23;;
19193;SDS011;9729;52.296;13.260;2022-12-18T13:48:14;51.47;;;20.13;;
19193;SDS011;9729;52.296;13.260;2022-12-18T13:50:42;47.63;;;21.40;;
19193;SDS011;9729;52.296;13.260;2022-12-18T13:53:11;43.67;;;20.20;;
19193;SDS011;9729;52.296;13.260;2022-12-18T13:55:47;47.63;;;19.50;;
19193;SDS011;9729;52.296;13.260;2022-12-18T13:58:16;36.43;;;14.70;;
19193;SDS011;9729;52.296;13.260;2022-12-18T14:00:43;40.93;;;17.23;;
19193;SDS011;9729;52.296;13.260;2022-12-18T14:03:15;35.27;;;15.40;;
19193;SDS011;9729;52.296;13.260;2022-12-18T14:05:44;37.90;;;17.47;;
19193;SDS011;9729;52.296;13.260;2022-12-18T14:08:12;43.63;;;17.77;;
19193;SDS011;9729;52.296;13.260;2022-12-18T14:10:40;39.27;;;16.00;;
19193;SDS011;9729;52.296;13.260;2022-12-18T14:13:08;38.00;;;17.53;;
19193;SDS011;9729;52.296;13.260;2022-12-18T14:15:39;41.73;;;18.27;;
19193;SDS011;9729;52.296;13.260;2022-12-18T14:18:12;44.47;;;17.07;;
19193;SDS011;9729;52.296;13.260;2022-12-18T14:20:48;38.40;;;17.97;;
19193;SDS011;9729;52.296;13.260;2022-12-18T14:23:26;45.93;;;20.07;;
19193;SDS011;9729;52.296;13.260;2022-12-18T14:25:54;58.63;;;20.27;;
19193;SDS011;9729;52.296;13.260;2022-12-18T14:28:23;56.07;;;21.03;;
19193;SDS011;9729;52.296;13.260;2022-12-18T14:30:52;64.83;;;26.37;;
19193;SDS011;9729;52.296;13.260;2022-12-18T14:33:20;56.57;;;21.93;;
19193;SDS011;9729;52.296;13.260;2022-12-18T14:35:54;59.73;;;25.63;;
19193;SDS011;9729;52.296;13.260;2022-12-18T14:38:24;62.50;;;24.13;;
19193;SDS011;9729;52.296;13.260;2022-12-18T14:40:53;60.97;;;23.73;;
19193;SDS011;9729;52.296;13.260;2022-12-18T14:43:21;64.77;;;24.80;;
19193;SDS011;9729;52.296;13.260;2022-12-18T14:45:47;69.30;;;25.87;;